sensor_id;sensor_type;location;lat;lon;timestamp;temperature;humidity
15543;DHT22;7873;52.230;12.856;2023-02-28T00:00:08;25.60;35.50
15543;DHT22;7873;52.230;12.856;2023-02-28T00:02:37;25.50;35.80
15543;DHT22;7873;52.230;12.856;2023-02-28T00:05:05;25.40;35.80
15543;DHT22;7873;52.230;12.856;2023-02-28T00:07:32;25.30;36.00
15543;DHT22;7873;52.230;12.856;2023-02-28T00:09:59;25.20;36.10
15543;DHT22;7873;52.230;12.856;2023-02-28T00:12:27;25.20;36.30
15543;DHT22;7873;52.230;12.856;2023-02-28T00:14:54;25.20;36.30
15543;DHT22;7873;52.230;12.856;2023-02-28T00:17:20;25.10;36.30
15543;DHT22;7873;52.230;12.856;2023-02-28T00:19:47;25.10;36.30
15543;DHT22;7873;52.230;12.856;2023-02-28T00:22:14;25.10;36.40
15543;DHT22;7873;52.230;12.856;2023-02-28T00:24:41;25.20;36.10
15543;DHT22;7873;52.230;12.856;2023-02-28T00:27:08;25.30;35.60
15543;DHT22;7873;52.230;12.856;2023-02-28T00:29:36;25.40;35.70
15543;DHT22;7873;52.230;12.856;2023-02-28T00:32:03;25.50;35.20
15543;DHT22;7873;52.230;12.856;2023-02-28T00:34:31;25.60;35.10
15543;DHT22;7873;52.230;12.856;2023-02-28T00:37:03;25.70;35.00
15543;DHT22;7873;52.230;12.856;2023-02-28T00:39:32;25.70;34.90
15543;DHT22;7873;52.230;12.856;2023-02-28T00:42:00;25.70;35.00
15543;DHT22;7873;52.230;12.856;2023-02-28T00:44:27;25.70;35.00
15543;DHT22;7873;52.230;12.856;2023-02-28T00:46:55;25.70;34.80
15543;DHT22;7873;52.230;12.856;2023-02-28T00:49:22;25.60;35.10
15543;DHT22;7873;52.230;12.856;2023-02-28T00:51:49;25.60;35.00
15543;DHT22;7873;52.230;12.856;2023-02-28T00:54:16;25.60;35.00
15543;DHT22;7873;52.230;12.856;2023-02-28T00:56:43;25.50;35.20
15543;DHT22;7873;52.230;12.856;2023-02-28T00:59:11;25.50;35.30
15543;DHT22;7873;52.230;12.856;2023-02-28T01:01:38;25.40;35.30
15543;DHT22;7873;52.230;12.856;2023-02-28T01:04:06;25.40;36.00
15543;DHT22;7873;52.230;12.856;2023-02-28T01:06:33;25.40;35.40
15543;DHT22;7873;52.230;12.856;2023-02-28T01:09:01;25.30;35.30
15543;DHT22;7873;52.230;12.856;2023-02-28T01:11:28;25.20;35.40
15543;DHT22;7873;52.230;12.856;2023-02-28T01:13:55;25.20;35.60
15543;DHT22;7873;52.230;12.856;2023-02-28T01:16:21;25.00;35.60
15543;DHT22;7873;52.230;12.856;2023-02-28T01:18:48;25.00;35.70
15543;DHT22;7873;52.230;12.856;2023-02-28T01:21:17;24.90;35.70
15543;DHT22;7873;52.230;12.856;2023-02-28T01:23:45;24.90;35.80
15543;DHT22;7873;52.230;12.856;2023-02-28T01:26:13;24.80;35.90
15543;DHT22;7873;52.230;12.856;2023-02-28T01:28:41;24.80;36.00
15543;DHT22;7873;52.230;12.856;2023-02-28T01:31:08;24.80;35.90
15543;DHT22;7873;52.230;12.856;2023-02-28T01:33:36;24.80;35.70
15543;DHT22;7873;52.230;12.856;2023-02-28T01:36:04;24.90;35.50
15543;DHT22;7873;52.230;12.856;2023-02-28T01:38:34;25.00;35.30
15543;DHT22;7873;52.230;12.856;2023-02-28T01:41:01;25.00;35.30
15543;DHT22;7873;52.230;12.856;2023-02-28T01:43:28;25.00;35.30
15543;DHT22;7873;52.230;12.856;2023-02-28T01:45:57;25.00;35.40
15543;DHT22;7873;52.230;12.856;2023-02-28T01:48:24;25.00;35.30
15543;DHT22;7873;52.230;12.856;2023-02-28T01:50:54;25.00;35.30
15543;DHT22;7873;52.230;12.856;2023-02-28T01:53:26;25.00;35.30
15543;DHT22;7873;52.230;12.856;2023-02-28T01:55:59;25.00;35.40
15543;DHT22;7873;52.230;12.856;2023-02-28T01:58:26;24.90;35.40
15543;DHT22;7873;52.230;12.856;2023-02-28T02:00:53;25.00;35.30
15543;DHT22;7873;52.230;12.856;2023-02-28T02:03:20;24.90;35.40
15543;DHT22;7873;52.230;12.856;2023-02-28T02:05:47;24.90;35.30
15543;DHT22;7873;52.230;12.856;2023-02-28T02:08:15;24.90;35.30
15543;DHT22;7873;52.230;12.856;2023-02-28T02:10:45;24.80;35.40
15543;DHT22;7873;52.230;12.856;2023-02-28T02:16:39;24.70;35.40
15543;DHT22;7873;52.230;12.856;2023-02-28T02:19:22;24.70;35.40
15543;DHT22;7873;52.230;12.856;2023-02-28T02:22:12;24.70;35.50
15543;DHT22;7873;52.230;12.856;2023-02-28T02:25:12;24.60;35.60
15543;DHT22;7873;52.230;12.856;2023-02-28T02:28:02;24.60;35.70
15543;DHT22;7873;52.230;12.856;2023-02-28T02:30:56;24.50;35.70
15543;DHT22;7873;52.230;12.856;2023-02-28T02:33:37;24.50;35.70
15543;DHT22;7873;52.230;12.856;2023-02-28T02:36:35;24.60;35.70
15543;DHT22;7873;52.230;12.856;2023-02-28T02:39:08;24.50;35.80
15543;DHT22;7873;52.230;12.856;2023-02-28T02:41:45;24.40;36.00
15543;DHT22;7873;52.230;12.856;2023-02-28T02:44:17;24.50;35.90
15543;DHT22;7873;52.230;12.856;2023-02-28T02:46:48;24.40;35.90
15543;DHT22;7873;52.230;12.856;2023-02-28T02:49:21;24.50;36.00
15543;DHT22;7873;52.230;12.856;2023-02-28T02:51:51;24.50;35.90
15543;DHT22;7873;52.230;12.856;2023-02-28T02:54:21;24.50;35.90
15543;DHT22;7873;52.230;12.856;2023-02-28T02:56:53;24.50;35.80
15543;DHT22;7873;52.230;12.856;2023-02-28T02:59:23;24.50;36.00
15543;DHT22;7873;52.230;12.856;2023-02-28T03:01:51;24.40;36.20
15543;DHT22;7873;52.230;12.856;2023-02-28T03:04:22;24.40;36.10
15543;DHT22;7873;52.230;12.856;2023-02-28T03:06:51;24.40;36.10
15543;DHT22;7873;52.230;12.856;2023-02-28T03:09:20;24.30;36.10
15543;DHT22;7873;52.230;12.856;2023-02-28T03:11:46;24.30;36.20
15543;DHT22;7873;52.230;12.856;2023-02-28T03:14:36;24.30;36.40
15543;DHT22;7873;52.230;12.856;2023-02-28T03:20:19;24.20;36.30
15543;DHT22;7873;52.230;12.856;2023-02-28T03:23:01;24.20;36.30
15543;DHT22;7873;52.230;12.856;2023-02-28T03:25:37;24.20;36.20
15543;DHT22;7873;52.230;12.856;2023-02-28T03:28:10;24.20;36.20
15543;DHT22;7873;52.230;12.856;2023-02-28T03:30:42;24.20;36.10
15543;DHT22;7873;52.230;12.856;2023-02-28T03:33:20;24.10;36.10
15543;DHT22;7873;52.230;12.856;2023-02-28T03:35:51;24.10;36.20
15543;DHT22;7873;52.230;12.856;2023-02-28T03:38:22;24.10;36.50
15543;DHT22;7873;52.230;12.856;2023-02-28T03:40:55;24.00;36.70
15543;DHT22;7873;52.230;12.856;2023-02-28T03:43:28;23.90;36.70
15543;DHT22;7873;52.230;12.856;2023-02-28T03:45:59;24.00;36.70
15543;DHT22;7873;52.230;12.856;2023-02-28T03:48:32;24.00;36.60
15543;DHT22;7873;52.230;12.856;2023-02-28T03:51:04;24.00;36.70
15543;DHT22;7873;52.230;12.856;2023-02-28T03:53:34;24.00;36.60
15543;DHT22;7873;52.230;12.856;2023-02-28T03:56:05;24.00;36.60
15543;DHT22;7873;52.230;12.856;2023-02-28T03:58:37;24.00;36.60
15543;DHT22;7873;52.230;12.856;2023-02-28T04:01:09;24.00;36.60
15543;DHT22;7873;52.230;12.856;2023-02-28T04:03:39;24.00;36.60
15543;DHT22;7873;52.230;12.856;2023-02-28T04:06:08;24.00;36.70
15543;DHT22;7873;52.230;12.856;2023-02-28T04:08:41;23.90;36.60
15543;DHT22;7873;52.230;12.856;2023-02-28T04:11:11;23.90;36.70
15543;DHT22;7873;52.230;12.856;2023-02-28T04:13:45;23.90;36.80
15543;DHT22;7873;52.230;12.856;2023-02-28T04:16:11;23.80;36.80
15543;DHT22;7873;52.230;12.856;2023-02-28T04:18:38;23.80;37.10
15543;DHT22;7873;52.230;12.856;2023-02-28T04:21:05;23.80;36.90
15543;DHT22;7873;52.230;12.856;2023-02-28T04:23:33;23.80;36.60
15543;DHT22;7873;52.230;12.856;2023-02-28T04:26:00;23.90;36.80
15543;DHT22;7873;52.230;12.856;2023-02-28T04:28:27;23.90;36.60
15543;DHT22;7873;52.230;12.856;2023-02-28T04:30:54;23.90;36.40
15543;DHT22;7873;52.230;12.856;2023-02-28T04:33:21;23.80;36.60
15543;DHT22;7873;52.230;12.856;2023-02-28T04:35:48;23.80;36.80
15543;DHT22;7873;52.230;12.856;2023-02-28T04:38:24;23.70;36.80
15543;DHT22;7873;52.230;12.856;2023-02-28T04:40:52;23.60;36.90
15543;DHT22;7873;52.230;12.856;2023-02-28T04:43:19;23.60;37.70
15543;DHT22;7873;52.230;12.856;2023-02-28T04:45:46;23.60;36.90
15543;DHT22;7873;52.230;12.856;2023-02-28T04:48:12;23.70;36.80
15543;DHT22;7873;52.230;12.856;2023-02-28T04:50:39;23.90;36.40
15543;DHT22;7873;52.230;12.856;2023-02-28T04:53:05;24.10;36.40
15543;DHT22;7873;52.230;12.856;2023-02-28T04:55:32;24.20;36.20
15543;DHT22;7873;52.230;12.856;2023-02-28T04:58:00;24.10;36.40
15543;DHT22;7873;52.230;12.856;2023-02-28T05:00:27;24.10;36.30
15543;DHT22;7873;52.230;12.856;2023-02-28T05:02:54;24.10;35.60
15543;DHT22;7873;52.230;12.856;2023-02-28T05:05:20;24.00;34.30
15543;DHT22;7873;52.230;12.856;2023-02-28T05:07:47;24.00;34.00
15543;DHT22;7873;52.230;12.856;2023-02-28T05:10:14;24.10;34.10
15543;DHT22;7873;52.230;12.856;2023-02-28T05:12:41;24.10;33.80
15543;DHT22;7873;52.230;12.856;2023-02-28T05:15:10;24.10;33.90
15543;DHT22;7873;52.230;12.856;2023-02-28T05:17:39;24.10;33.90
15543;DHT22;7873;52.230;12.856;2023-02-28T05:20:06;24.10;33.70
15543;DHT22;7873;52.230;12.856;2023-02-28T05:22:34;24.10;33.30
15543;DHT22;7873;52.230;12.856;2023-02-28T05:25:01;24.00;34.90
15543;DHT22;7873;52.230;12.856;2023-02-28T05:27:27;24.00;34.60
15543;DHT22;7873;52.230;12.856;2023-02-28T05:29:54;24.10;31.80
15543;DHT22;7873;52.230;12.856;2023-02-28T05:32:22;24.10;33.40
15543;DHT22;7873;52.230;12.856;2023-02-28T05:34:49;24.00;31.10
15543;DHT22;7873;52.230;12.856;2023-02-28T05:37:16;23.90;31.80
15543;DHT22;7873;52.230;12.856;2023-02-28T05:39:42;23.70;32.10
15543;DHT22;7873;52.230;12.856;2023-02-28T05:42:09;23.60;32.30
15543;DHT22;7873;52.230;12.856;2023-02-28T05:44:36;23.50;33.00
15543;DHT22;7873;52.230;12.856;2023-02-28T05:47:02;23.60;32.70
15543;DHT22;7873;52.230;12.856;2023-02-28T05:49:30;23.60;32.10
15543;DHT22;7873;52.230;12.856;2023-02-28T05:51:57;23.60;32.60
15543;DHT22;7873;52.230;12.856;2023-02-28T05:54:24;23.40;33.00
15543;DHT22;7873;52.230;12.856;2023-02-28T05:56:50;23.50;32.70
15543;DHT22;7873;52.230;12.856;2023-02-28T05:59:17;23.70;32.40
15543;DHT22;7873;52.230;12.856;2023-02-28T06:01:44;23.70;33.10
15543;DHT22;7873;52.230;12.856;2023-02-28T06:04:13;23.60;33.30
15543;DHT22;7873;52.230;12.856;2023-02-28T06:06:44;23.40;33.50
15543;DHT22;7873;52.230;12.856;2023-02-28T06:09:11;23.30;33.60
15543;DHT22;7873;52.230;12.856;2023-02-28T06:11:38;23.20;33.20
15543;DHT22;7873;52.230;12.856;2023-02-28T06:14:05;23.10;32.90
15543;DHT22;7873;52.230;12.856;2023-02-28T06:16:33;23.00;33.50
15543;DHT22;7873;52.230;12.856;2023-02-28T06:19:01;23.00;32.80
15543;DHT22;7873;52.230;12.856;2023-02-28T06:21:29;23.00;33.00
15543;DHT22;7873;52.230;12.856;2023-02-28T06:23:58;23.10;33.10
15543;DHT22;7873;52.230;12.856;2023-02-28T06:26:25;23.10;33.00
15543;DHT22;7873;52.230;12.856;2023-02-28T06:28:52;23.10;33.00
15543;DHT22;7873;52.230;12.856;2023-02-28T06:31:18;23.10;33.10
15543;DHT22;7873;52.230;12.856;2023-02-28T06:33:45;23.00;33.30
15543;DHT22;7873;52.230;12.856;2023-02-28T06:36:13;23.00;33.40
15543;DHT22;7873;52.230;12.856;2023-02-28T06:38:41;23.00;33.40
15543;DHT22;7873;52.230;12.856;2023-02-28T06:41:10;23.00;33.50
15543;DHT22;7873;52.230;12.856;2023-02-28T06:43:38;23.00;33.70
15543;DHT22;7873;52.230;12.856;2023-02-28T06:46:07;22.90;33.70
15543;DHT22;7873;52.230;12.856;2023-02-28T06:48:36;22.90;33.70
15543;DHT22;7873;52.230;12.856;2023-02-28T06:51:04;22.90;33.80
15543;DHT22;7873;52.230;12.856;2023-02-28T06:53:32;22.90;33.80
15543;DHT22;7873;52.230;12.856;2023-02-28T06:55:59;22.90;33.70
15543;DHT22;7873;52.230;12.856;2023-02-28T06:58:27;22.90;33.80
15543;DHT22;7873;52.230;12.856;2023-02-28T07:00:53;22.80;33.90
15543;DHT22;7873;52.230;12.856;2023-02-28T07:03:21;22.80;33.80
15543;DHT22;7873;52.230;12.856;2023-02-28T07:05:48;22.80;33.90
15543;DHT22;7873;52.230;12.856;2023-02-28T07:08:16;22.80;33.90
15543;DHT22;7873;52.230;12.856;2023-02-28T07:10:42;22.80;33.80
15543;DHT22;7873;52.230;12.856;2023-02-28T07:13:09;22.80;33.90
15543;DHT22;7873;52.230;12.856;2023-02-28T07:15:37;22.80;33.90
15543;DHT22;7873;52.230;12.856;2023-02-28T07:18:04;22.80;33.90
15543;DHT22;7873;52.230;12.856;2023-02-28T07:20:31;22.80;33.90
15543;DHT22;7873;52.230;12.856;2023-02-28T07:22:57;22.80;34.00
15543;DHT22;7873;52.230;12.856;2023-02-28T07:25:24;22.80;33.90
15543;DHT22;7873;52.230;12.856;2023-02-28T07:27:53;22.80;33.90
15543;DHT22;7873;52.230;12.856;2023-02-28T07:30:20;22.80;33.90
15543;DHT22;7873;52.230;12.856;2023-02-28T07:32:48;22.80;33.90
15543;DHT22;7873;52.230;12.856;2023-02-28T07:35:14;22.70;34.00
15543;DHT22;7873;52.230;12.856;2023-02-28T07:37:41;22.70;34.00
15543;DHT22;7873;52.230;12.856;2023-02-28T07:40:09;22.70;34.00
15543;DHT22;7873;52.230;12.856;2023-02-28T07:42:37;22.60;34.10
15543;DHT22;7873;52.230;12.856;2023-02-28T07:45:05;22.60;34.10
15543;DHT22;7873;52.230;12.856;2023-02-28T07:47:33;22.70;34.00
15543;DHT22;7873;52.230;12.856;2023-02-28T07:50:01;22.60;34.10
15543;DHT22;7873;52.230;12.856;2023-02-28T07:52:28;22.60;34.10
15543;DHT22;7873;52.230;12.856;2023-02-28T07:54:54;22.60;34.20
15543;DHT22;7873;52.230;12.856;2023-02-28T07:57:21;22.60;34.20
15543;DHT22;7873;52.230;12.856;2023-02-28T07:59:48;22.60;34.10
15543;DHT22;7873;52.230;12.856;2023-02-28T08:02:16;22.60;34.20
15543;DHT22;7873;52.230;12.856;2023-02-28T08:04:44;22.50;34.20
15543;DHT22;7873;52.230;12.856;2023-02-28T08:07:13;22.50;34.30
15543;DHT22;7873;52.230;12.856;2023-02-28T08:09:40;22.50;34.40
15543;DHT22;7873;52.230;12.856;2023-02-28T08:12:07;22.50;34.40
15543;DHT22;7873;52.230;12.856;2023-02-28T08:14:35;22.50;34.40
15543;DHT22;7873;52.230;12.856;2023-02-28T08:17:02;22.50;34.40
15543;DHT22;7873;52.230;12.856;2023-02-28T08:19:29;22.40;34.40
15543;DHT22;7873;52.230;12.856;2023-02-28T08:21:56;22.50;34.50
15543;DHT22;7873;52.230;12.856;2023-02-28T08:24:24;22.40;34.40
15543;DHT22;7873;52.230;12.856;2023-02-28T08:26:51;22.50;34.40
15543;DHT22;7873;52.230;12.856;2023-02-28T08:29:18;22.50;34.40
15543;DHT22;7873;52.230;12.856;2023-02-28T08:31:44;22.50;34.40
15543;DHT22;7873;52.230;12.856;2023-02-28T08:34:12;22.50;34.40
15543;DHT22;7873;52.230;12.856;2023-02-28T08:36:40;22.50;34.40
15543;DHT22;7873;52.230;12.856;2023-02-28T08:39:08;22.50;34.40
15543;DHT22;7873;52.230;12.856;2023-02-28T08:41:37;22.40;34.40
15543;DHT22;7873;52.230;12.856;2023-02-28T08:44:04;22.50;34.40
15543;DHT22;7873;52.230;12.856;2023-02-28T08:46:31;22.50;34.40
15543;DHT22;7873;52.230;12.856;2023-02-28T08:48:57;22.50;34.40
15543;DHT22;7873;52.230;12.856;2023-02-28T08:51:27;22.50;34.40
15543;DHT22;7873;52.230;12.856;2023-02-28T08:53:54;22.40;34.40
15543;DHT22;7873;52.230;12.856;2023-02-28T08:56:22;22.40;34.30
15543;DHT22;7873;52.230;12.856;2023-02-28T08:58:51;22.50;34.40
15543;DHT22;7873;52.230;12.856;2023-02-28T09:01:21;22.40;34.40
15543;DHT22;7873;52.230;12.856;2023-02-28T09:03:49;22.50;34.40
15543;DHT22;7873;52.230;12.856;2023-02-28T09:06:18;22.50;34.40
15543;DHT22;7873;52.230;12.856;2023-02-28T09:08:46;22.50;34.40
15543;DHT22;7873;52.230;12.856;2023-02-28T09:11:13;22.40;34.30
15543;DHT22;7873;52.230;12.856;2023-02-28T09:13:40;22.40;34.40
15543;DHT22;7873;52.230;12.856;2023-02-28T09:16:09;22.40;34.40
15543;DHT22;7873;52.230;12.856;2023-02-28T09:18:37;22.40;35.10
15543;DHT22;7873;52.230;12.856;2023-02-28T09:21:05;22.50;34.40
15543;DHT22;7873;52.230;12.856;2023-02-28T09:23:33;22.50;34.40
15543;DHT22;7873;52.230;12.856;2023-02-28T09:26:03;22.50;34.40
15543;DHT22;7873;52.230;12.856;2023-02-28T09:28:31;22.50;34.30
15543;DHT22;7873;52.230;12.856;2023-02-28T09:30:57;22.40;34.30
15543;DHT22;7873;52.230;12.856;2023-02-28T09:33:26;22.40;34.40
15543;DHT22;7873;52.230;12.856;2023-02-28T09:35:57;22.40;34.30
15543;DHT22;7873;52.230;12.856;2023-02-28T09:38:24;22.40;34.20
15543;DHT22;7873;52.230;12.856;2023-02-28T09:40:53;22.40;34.40
15543;DHT22;7873;52.230;12.856;2023-02-28T09:43:21;22.40;34.30
15543;DHT22;7873;52.230;12.856;2023-02-28T09:45:51;22.40;34.30
15543;DHT22;7873;52.230;12.856;2023-02-28T09:48:26;22.40;34.40
15543;DHT22;7873;52.230;12.856;2023-02-28T09:50:59;22.40;35.10
15543;DHT22;7873;52.230;12.856;2023-02-28T09:53:29;22.40;34.30
15543;DHT22;7873;52.230;12.856;2023-02-28T09:55:59;22.30;34.30
15543;DHT22;7873;52.230;12.856;2023-02-28T09:58:31;22.30;34.40
15543;DHT22;7873;52.230;12.856;2023-02-28T10:01:03;22.30;34.40
15543;DHT22;7873;52.230;12.856;2023-02-28T10:03:38;22.30;34.30
15543;DHT22;7873;52.230;12.856;2023-02-28T10:06:07;22.30;34.40
15543;DHT22;7873;52.230;12.856;2023-02-28T10:08:41;22.30;34.30
15543;DHT22;7873;52.230;12.856;2023-02-28T10:11:12;22.30;34.30
15543;DHT22;7873;52.230;12.856;2023-02-28T10:13:46;22.30;34.30
15543;DHT22;7873;52.230;12.856;2023-02-28T10:16:22;22.30;34.40
15543;DHT22;7873;52.230;12.856;2023-02-28T10:18:56;22.30;34.30
15543;DHT22;7873;52.230;12.856;2023-02-28T10:21:29;22.30;34.40
15543;DHT22;7873;52.230;12.856;2023-02-28T10:24:03;22.30;34.40
15543;DHT22;7873;52.230;12.856;2023-02-28T10:26:32;22.30;34.40
15543;DHT22;7873;52.230;12.856;2023-02-28T10:28:59;22.30;34.40
15543;DHT22;7873;52.230;12.856;2023-02-28T10:31:27;22.30;34.50
15543;DHT22;7873;52.230;12.856;2023-02-28T10:33:56;22.20;34.30
15543;DHT22;7873;52.230;12.856;2023-02-28T10:36:23;22.20;34.40
15543;DHT22;7873;52.230;12.856;2023-02-28T10:38:50;22.20;34.50
15543;DHT22;7873;52.230;12.856;2023-02-28T10:41:25;22.20;34.40
15543;DHT22;7873;52.230;12.856;2023-02-28T10:44:12;22.20;34.40
15543;DHT22;7873;52.230;12.856;2023-02-28T10:46:41;22.20;34.40
15543;DHT22;7873;52.230;12.856;2023-02-28T10:49:13;22.20;34.40
15543;DHT22;7873;52.230;12.856;2023-02-28T10:51:44;22.20;34.40
15543;DHT22;7873;52.230;12.856;2023-02-28T10:54:18;22.20;34.40
15543;DHT22;7873;52.230;12.856;2023-02-28T10:59:41;22.20;34.50
15543;DHT22;7873;52.230;12.856;2023-02-28T11:04:59;22.10;34.40
15543;DHT22;7873;52.230;12.856;2023-02-28T11:07:26;22.10;34.50
15543;DHT22;7873;52.230;12.856;2023-02-28T11:09:54;22.10;34.50
15543;DHT22;7873;52.230;12.856;2023-02-28T11:12:23;22.10;35.30
15543;DHT22;7873;52.230;12.856;2023-02-28T11:14:54;22.10;34.50
15543;DHT22;7873;52.230;12.856;2023-02-28T11:17:23;22.10;35.20
15543;DHT22;7873;52.230;12.856;2023-02-28T11:19:53;22.10;34.50
15543;DHT22;7873;52.230;12.856;2023-02-28T11:22:24;22.10;34.60
15543;DHT22;7873;52.230;12.856;2023-02-28T11:24:55;22.10;34.50
15543;DHT22;7873;52.230;12.856;2023-02-28T11:27:25;22.10;34.50
15543;DHT22;7873;52.230;12.856;2023-02-28T11:30:32;22.10;34.50
15543;DHT22;7873;52.230;12.856;2023-02-28T11:33:01;22.10;34.50
15543;DHT22;7873;52.230;12.856;2023-02-28T11:35:44;22.10;34.50
15543;DHT22;7873;52.230;12.856;2023-02-28T11:38:15;22.00;34.50
15543;DHT22;7873;52.230;12.856;2023-02-28T11:40:43;22.10;34.60
15543;DHT22;7873;52.230;12.856;2023-02-28T11:43:22;22.10;34.70
15543;DHT22;7873;52.230;12.856;2023-02-28T11:46:05;22.10;34.60
15543;DHT22;7873;52.230;12.856;2023-02-28T11:48:43;22.00;34.50
15543;DHT22;7873;52.230;12.856;2023-02-28T11:51:21;22.00;34.50
15543;DHT22;7873;52.230;12.856;2023-02-28T11:54:01;22.00;34.50
15543;DHT22;7873;52.230;12.856;2023-02-28T11:56:39;22.00;34.50
15543;DHT22;7873;52.230;12.856;2023-02-28T11:59:24;22.00;34.50
15543;DHT22;7873;52.230;12.856;2023-02-28T12:02:05;22.00;34.50
15543;DHT22;7873;52.230;12.856;2023-02-28T12:04:49;22.00;34.60
15543;DHT22;7873;52.230;12.856;2023-02-28T12:07:24;22.00;34.70
15543;DHT22;7873;52.230;12.856;2023-02-28T12:10:01;22.00;34.60
15543;DHT22;7873;52.230;12.856;2023-02-28T12:12:38;22.00;34.60
15543;DHT22;7873;52.230;12.856;2023-02-28T12:15:16;22.00;34.70
15543;DHT22;7873;52.230;12.856;2023-02-28T12:18:18;21.90;34.70
15543;DHT22;7873;52.230;12.856;2023-02-28T12:20:53;21.90;34.70
15543;DHT22;7873;52.230;12.856;2023-02-28T12:23:37;21.90;34.70
15543;DHT22;7873;52.230;12.856;2023-02-28T12:26:20;21.90;34.60
15543;DHT22;7873;52.230;12.856;2023-02-28T12:28:54;21.90;34.70
15543;DHT22;7873;52.230;12.856;2023-02-28T12:31:27;21.90;34.70
15543;DHT22;7873;52.230;12.856;2023-02-28T12:33:59;21.90;34.70
15543;DHT22;7873;52.230;12.856;2023-02-28T12:36:29;21.90;34.80
15543;DHT22;7873;52.230;12.856;2023-02-28T12:38:56;21.90;34.80
15543;DHT22;7873;52.230;12.856;2023-02-28T12:41:29;21.90;34.80
15543;DHT22;7873;52.230;12.856;2023-02-28T12:44:02;21.90;34.70
15543;DHT22;7873;52.230;12.856;2023-02-28T12:46:32;21.80;34.70
15543;DHT22;7873;52.230;12.856;2023-02-28T12:49:04;21.80;34.80
15543;DHT22;7873;52.230;12.856;2023-02-28T12:51:34;21.80;34.70
15543;DHT22;7873;52.230;12.856;2023-02-28T12:54:09;21.80;34.90
15543;DHT22;7873;52.230;12.856;2023-02-28T12:56:44;21.80;34.90
15543;DHT22;7873;52.230;12.856;2023-02-28T12:59:19;21.80;34.90
15543;DHT22;7873;52.230;12.856;2023-02-28T13:04:56;21.70;34.90
15543;DHT22;7873;52.230;12.856;2023-02-28T13:07:42;21.70;35.00
15543;DHT22;7873;52.230;12.856;2023-02-28T13:10:24;21.70;35.10
15543;DHT22;7873;52.230;12.856;2023-02-28T13:13:05;21.60;35.20
15543;DHT22;7873;52.230;12.856;2023-02-28T13:15:31;21.50;35.30
15543;DHT22;7873;52.230;12.856;2023-02-28T13:18:03;21.50;35.50
15543;DHT22;7873;52.230;12.856;2023-02-28T13:20:31;21.40;35.70
15543;DHT22;7873;52.230;12.856;2023-02-28T13:23:01;21.40;35.80
15543;DHT22;7873;52.230;12.856;2023-02-28T13:38:15;21.60;35.30
15543;DHT22;7873;52.230;12.856;2023-02-28T13:40:47;21.60;35.30
15543;DHT22;7873;52.230;12.856;2023-02-28T13:43:16;21.70;35.30
15543;DHT22;7873;52.230;12.856;2023-02-28T13:48:34;21.70;35.30
15543;DHT22;7873;52.230;12.856;2023-02-28T13:54:13;21.70;35.20
15543;DHT22;7873;52.230;12.856;2023-02-28T13:56:51;21.70;35.00
15543;DHT22;7873;52.230;12.856;2023-02-28T13:59:29;21.80;35.00
15543;DHT22;7873;52.230;12.856;2023-02-28T14:02:13;21.90;34.90
15543;DHT22;7873;52.230;12.856;2023-02-28T14:05:00;22.00;34.70
15543;DHT22;7873;52.230;12.856;2023-02-28T14:07:29;22.20;34.40
15543;DHT22;7873;52.230;12.856;2023-02-28T14:10:01;22.30;34.30
15543;DHT22;7873;52.230;12.856;2023-02-28T14:15:36;22.40;34.10
15543;DHT22;7873;52.230;12.856;2023-02-28T14:18:11;22.40;34.10
15543;DHT22;7873;52.230;12.856;2023-02-28T14:20:43;22.50;34.10
15543;DHT22;7873;52.230;12.856;2023-02-28T14:23:16;22.50;34.10
15543;DHT22;7873;52.230;12.856;2023-02-28T14:25:55;22.50;34.10
15543;DHT22;7873;52.230;12.856;2023-02-28T14:28:37;22.50;34.10
15543;DHT22;7873;52.230;12.856;2023-02-28T14:31:13;22.60;34.30
15543;DHT22;7873;52.230;12.856;2023-02-28T14:33:59;22.60;34.20
15543;DHT22;7873;52.230;12.856;2023-02-28T14:36:39;22.60;34.40
15543;DHT22;7873;52.230;12.856;2023-02-28T14:39:10;22.50;34.40
15543;DHT22;7873;52.230;12.856;2023-02-28T14:41:41;22.50;34.60
15543;DHT22;7873;52.230;12.856;2023-02-28T14:44:16;22.40;34.80
15543;DHT22;7873;52.230;12.856;2023-02-28T14:46:44;22.40;35.00
15543;DHT22;7873;52.230;12.856;2023-02-28T14:49:13;22.30;35.30
15543;DHT22;7873;52.230;12.856;2023-02-28T14:51:43;22.30;35.50
15543;DHT22;7873;52.230;12.856;2023-02-28T14:54:12;22.30;35.60
15543;DHT22;7873;52.230;12.856;2023-02-28T14:56:42;22.20;35.70
15543;DHT22;7873;52.230;12.856;2023-02-28T14:59:25;22.20;35.90
15543;DHT22;7873;52.230;12.856;2023-02-28T15:04:57;22.10;35.90
15543;DHT22;7873;52.230;12.856;2023-02-28T15:07:26;22.20;36.10
15543;DHT22;7873;52.230;12.856;2023-02-28T15:10:09;22.20;36.90
15543;DHT22;7873;52.230;12.856;2023-02-28T15:12:48;22.10;36.10
15543;DHT22;7873;52.230;12.856;2023-02-28T15:15:19;22.10;34.40
15543;DHT22;7873;52.230;12.856;2023-02-28T15:17:48;21.60;26.60
15543;DHT22;7873;52.230;12.856;2023-02-28T15:20:18;21.00;27.70
15543;DHT22;7873;52.230;12.856;2023-02-28T15:22:45;20.70;28.60
15543;DHT22;7873;52.230;12.856;2023-02-28T15:25:14;20.80;30.00
15543;DHT22;7873;52.230;12.856;2023-02-28T15:27:47;20.60;31.40
15543;DHT22;7873;52.230;12.856;2023-02-28T15:30:17;20.80;31.70
15543;DHT22;7873;52.230;12.856;2023-02-28T15:32:46;20.70;30.60
15543;DHT22;7873;52.230;12.856;2023-02-28T15:35:30;20.60;27.80
15543;DHT22;7873;52.230;12.856;2023-02-28T15:38:00;20.00;26.40
15543;DHT22;7873;52.230;12.856;2023-02-28T15:40:31;19.30;28.30
15543;DHT22;7873;52.230;12.856;2023-02-28T15:43:07;18.90;26.70
15543;DHT22;7873;52.230;12.856;2023-02-28T15:45:41;18.80;26.30
15543;DHT22;7873;52.230;12.856;2023-02-28T15:48:14;18.10;25.50
15543;DHT22;7873;52.230;12.856;2023-02-28T15:50:44;17.90;26.10
15543;DHT22;7873;52.230;12.856;2023-02-28T15:53:15;17.80;26.10
15543;DHT22;7873;52.230;12.856;2023-02-28T15:55:44;17.70;26.10
15543;DHT22;7873;52.230;12.856;2023-02-28T15:58:12;17.60;26.40
15543;DHT22;7873;52.230;12.856;2023-02-28T16:00:39;17.30;26.40
15543;DHT22;7873;52.230;12.856;2023-02-28T16:03:24;17.30;27.00
15543;DHT22;7873;52.230;12.856;2023-02-28T16:08:51;17.00;27.00
15543;DHT22;7873;52.230;12.856;2023-02-28T16:11:18;16.50;28.00
15543;DHT22;7873;52.230;12.856;2023-02-28T16:13:48;16.60;28.60
15543;DHT22;7873;52.230;12.856;2023-02-28T16:16:15;16.50;27.50
15543;DHT22;7873;52.230;12.856;2023-02-28T16:18:43;16.60;28.50
15543;DHT22;7873;52.230;12.856;2023-02-28T16:21:10;16.40;29.00
15543;DHT22;7873;52.230;12.856;2023-02-28T16:23:36;16.50;31.70
15543;DHT22;7873;52.230;12.856;2023-02-28T16:26:03;16.40;32.30
15543;DHT22;7873;52.230;12.856;2023-02-28T16:28:31;16.30;32.60
15543;DHT22;7873;52.230;12.856;2023-02-28T16:31:00;16.30;33.00
15543;DHT22;7873;52.230;12.856;2023-02-28T16:33:28;16.10;31.40